Terminal Aerodrome Forecast
Issued by NWS Shreveport, LA

Home | Current Version | Previous Version | Text Only | Print | Product List | Glossary On
Versions: 1 2 3 4 5 6 7 8 9 10 11 12 13 14 15 16 17 18 19
740
FTUS44 KSHV 240904 AAA
TAFTYR
TAF AMD
KTYR 240904Z 2409/2506 17010KT P6SM SCT025 SCT250
      TEMPO 2411/2415 OVC015
     FM241500 17010KT P6SM BKN035
     FM241800 17013KT P6SM VCTS SCT050CB BKN250
     FM250000 17010KT P6SM SCT050 BKN100=

USA.gov is the U.S. government's official web portal to all federal, state and local government web resources and services.